createdAt,value
2023-12-07T00:01:00.488Z,2.85
2023-12-07T00:04:02.566Z,2.89
2023-12-07T00:07:05.946Z,2.89
2023-12-07T00:10:08.821Z,2.81
2023-12-07T00:13:10.719Z,3.00
2023-12-07T00:16:13.266Z,3.01
2023-12-07T00:19:15.141Z,2.91
2023-12-07T00:22:18.612Z,3.02
2023-12-07T00:25:20.670Z,3.04
2023-12-07T00:28:23.214Z,3.05
2023-12-07T00:31:25.131Z,3.06
2023-12-07T00:34:27.405Z,3.05
2023-12-07T00:37:30.717Z,3.09
2023-12-07T00:40:37.104Z,3.08
2023-12-07T00:43:39.112Z,3.10
2023-12-07T00:46:41.084Z,3.15
2023-12-07T00:49:44.345Z,3.09
2023-12-07T00:52:47.630Z,3.17
2023-12-07T00:55:49.643Z,3.22
2023-12-07T00:58:52.175Z,3.24
2023-12-07T01:01:54.151Z,3.25
2023-12-07T01:04:56.316Z,3.29
2023-12-07T01:07:59.626Z,3.32
2023-12-07T01:11:02.073Z,3.20
2023-12-07T01:14:03.953Z,3.34
2023-12-07T01:17:06.085Z,3.28
2023-12-07T01:20:13.719Z,3.23
2023-12-07T01:23:17.469Z,3.25
2023-12-07T01:26:19.426Z,3.15
2023-12-07T01:29:22.152Z,3.06
2023-12-07T01:32:25.478Z,2.85
2023-12-07T01:35:27.631Z,2.82
2023-12-07T01:38:30.991Z,3.20
2023-12-07T01:41:33.124Z,3.20
2023-12-07T01:44:35.227Z,3.24
2023-12-07T01:47:38.275Z,3.23
2023-12-07T01:50:41.071Z,2.98
2023-12-07T01:53:44.526Z,2.95
2023-12-07T01:56:47.238Z,3.28
2023-12-07T01:59:50.158Z,2.57
2023-12-07T02:02:53.132Z,3.26
2023-12-07T02:05:56.147Z,3.24
2023-12-07T02:08:59.483Z,3.26
2023-12-07T02:12:01.922Z,3.24
2023-12-07T02:15:04.595Z,3.25
2023-12-07T02:18:15.323Z,2.93
2023-12-07T02:21:23.022Z,3.22
2023-12-07T02:24:30.001Z,3.20
2023-12-07T02:27:38.478Z,3.22
2023-12-07T02:30:40.967Z,3.22
2023-12-07T02:33:43.062Z,3.28
2023-12-07T02:36:49.536Z,3.24
2023-12-07T02:39:52.668Z,3.22
2023-12-07T02:42:57.342Z,3.19
2023-12-07T02:45:59.666Z,3.19
2023-12-07T02:49:02.128Z,3.17
2023-12-07T02:52:04.689Z,2.57
2023-12-07T02:55:07.578Z,3.24
2023-12-07T02:58:11.206Z,3.12
2023-12-07T03:01:13.145Z,3.20
2023-12-07T03:04:15.295Z,3.26
2023-12-07T03:07:18.079Z,3.04
2023-12-07T03:10:20.121Z,3.21
2023-12-07T03:13:24.263Z,3.14
2023-12-07T03:16:26.236Z,3.07
2023-12-07T03:19:28.205Z,3.04
2023-12-07T03:22:30.708Z,2.87
2023-12-07T03:25:32.886Z,3.12
2023-12-07T03:28:37.125Z,3.14
2023-12-07T03:31:39.113Z,3.16
2023-12-07T03:34:41.094Z,3.22
2023-12-07T03:37:43.046Z,3.24
2023-12-07T03:40:49.143Z,3.24
2023-12-07T03:43:53.175Z,3.05
2023-12-07T03:46:56.419Z,3.19
2023-12-07T03:49:58.352Z,3.16
2023-12-07T03:53:00.304Z,3.14
2023-12-07T03:56:02.711Z,3.12
2023-12-07T03:59:05.934Z,2.99
2023-12-07T04:02:08.699Z,3.08
2023-12-07T04:05:10.719Z,2.85
2023-12-07T04:08:13.713Z,3.10
2023-12-07T04:11:16.251Z,3.16
2023-12-07T04:14:19.590Z,2.83
2023-12-07T04:17:22.558Z,2.28
2023-12-07T04:20:24.611Z,3.12
2023-12-07T04:23:26.815Z,2.32
2023-12-07T04:26:28.807Z,2.64
2023-12-07T04:29:32.119Z,2.92
2023-12-07T04:32:34.673Z,2.45
2023-12-07T04:35:36.777Z,2.68
2023-12-07T04:38:39.614Z,3.07
2023-12-07T04:41:41.455Z,2.95
2023-12-07T04:44:44.763Z,3.14
2023-12-07T04:47:47.720Z,2.85
2023-12-07T04:50:49.648Z,3.17
2023-12-07T04:53:54.729Z,3.07
2023-12-07T04:56:58.136Z,3.17
2023-12-07T05:00:01.706Z,2.98
2023-12-07T05:03:04.014Z,3.09
2023-12-07T05:06:06.671Z,3.09
2023-12-07T05:09:10.657Z,3.10
2023-12-07T05:12:13.521Z,3.10
2023-12-07T05:15:16.955Z,3.09
2023-12-07T05:18:19.502Z,3.13
2023-12-07T05:21:21.569Z,3.13
2023-12-07T05:24:23.461Z,3.09
2023-12-07T05:27:25.517Z,3.13
2023-12-07T05:30:29.266Z,3.06
2023-12-07T05:33:31.566Z,3.05
2023-12-07T05:36:33.600Z,3.05
2023-12-07T05:39:35.402Z,3.11
2023-12-07T05:42:37.293Z,3.08
2023-12-07T05:45:40.528Z,3.10
2023-12-07T05:48:43.529Z,3.12
2023-12-07T05:51:45.554Z,3.08
2023-12-07T05:54:49.215Z,2.70
2023-12-07T05:57:51.324Z,3.09
2023-12-07T06:00:54.680Z,3.07
2023-12-07T06:03:56.700Z,2.64
2023-12-07T06:06:58.691Z,2.53
2023-12-07T06:10:00.773Z,2.64
2023-12-07T06:13:04.801Z,3.04
2023-12-07T06:16:08.265Z,2.57
2023-12-07T06:19:10.489Z,2.86
2023-12-07T06:22:12.519Z,3.07
2023-12-07T06:25:15.014Z,3.09
2023-12-07T06:28:17.030Z,3.08
2023-12-07T06:31:23.985Z,3.15
2023-12-07T06:34:26.189Z,3.15
2023-12-07T06:37:28.338Z,3.14
2023-12-07T06:40:30.253Z,3.07
2023-12-07T06:43:32.586Z,3.15
2023-12-07T06:46:35.970Z,3.16
2023-12-07T06:49:47.207Z,3.15
2023-12-07T06:52:54.276Z,2.61
2023-12-07T06:55:56.273Z,3.18
2023-12-07T06:58:59.216Z,2.85
2023-12-07T07:02:03.192Z,2.05
2023-12-07T07:05:07.236Z,0.60
2023-12-07T07:08:09.804Z,0.44
2023-12-07T07:11:15.391Z,0.34
2023-12-07T07:14:17.407Z,0.21
2023-12-07T07:17:20.788Z,0.28
2023-12-07T07:20:23.416Z,0.24
2023-12-07T07:23:25.431Z,-0.25
2023-12-07T07:26:27.423Z,-0.37
2023-12-07T07:29:30.408Z,0.29
2023-12-07T07:32:33.760Z,0.88
2023-12-07T07:35:36.130Z,1.51
2023-12-07T07:38:38.054Z,1.88
2023-12-07T07:41:40.120Z,2.27
2023-12-07T07:44:42.468Z,2.31
2023-12-07T07:47:46.268Z,2.59
2023-12-07T07:50:49.962Z,2.63
2023-12-07T07:53:57.067Z,2.35
2023-12-07T07:57:09.804Z,2.02
2023-12-07T08:00:20.502Z,2.79
2023-12-07T08:03:25.208Z,0.61
2023-12-07T08:06:27.164Z,-0.10
2023-12-07T08:09:29.606Z,-0.15
2023-12-07T08:12:38.024Z,-0.22
2023-12-07T08:15:41.925Z,0.78
2023-12-07T08:18:45.492Z,-0.05
2023-12-07T08:21:48.070Z,-0.06
2023-12-07T08:25:01.329Z,0.43
2023-12-07T08:28:11.134Z,0.40
2023-12-07T08:31:13.185Z,0.85
2023-12-07T08:34:18.743Z,0.84
2023-12-07T08:37:21.632Z,0.88
2023-12-07T08:40:23.830Z,0.60
2023-12-07T08:43:26.259Z,0.48
2023-12-07T08:46:28.199Z,0.70
2023-12-07T08:49:31.929Z,0.47
2023-12-07T08:52:42.189Z,0.15
2023-12-07T08:55:49.828Z,0.70
2023-12-07T08:58:52.521Z,0.37
2023-12-07T09:01:54.654Z,0.19
2023-12-07T09:04:58.094Z,0.57
2023-12-07T09:08:01.017Z,1.01
2023-12-07T09:11:03.059Z,0.33
2023-12-07T09:14:05.897Z,0.05
2023-12-07T09:17:07.831Z,0.06
2023-12-07T09:20:15.759Z,1.02
2023-12-07T09:23:18.127Z,0.87
2023-12-07T09:26:20.128Z,0.14
2023-12-07T09:29:22.844Z,0.65
2023-12-07T09:32:29.942Z,0.27
2023-12-07T09:35:36.819Z,0.89
2023-12-07T09:38:38.828Z,0.27
2023-12-07T09:41:42.870Z,0.18
2023-12-07T09:44:44.928Z,0.83
2023-12-07T09:47:49.225Z,0.77
2023-12-07T09:50:53.903Z,0.50
2023-12-07T09:53:56.170Z,0.77
2023-12-07T09:56:58.642Z,0.24
2023-12-07T10:00:00.623Z,0.74
2023-12-07T10:03:02.965Z,0.25
2023-12-07T10:06:06.728Z,1.27
2023-12-07T10:09:14.864Z,0.98
2023-12-07T10:12:19.797Z,1.28
2023-12-07T10:15:23.816Z,1.30
2023-12-07T10:18:26.699Z,1.09
2023-12-07T10:21:34.537Z,1.28
2023-12-07T10:24:36.816Z,1.25
2023-12-07T10:27:40.226Z,1.35
2023-12-07T10:30:44.311Z,1.33
2023-12-07T10:33:49.144Z,0.91
2023-12-07T10:36:54.337Z,0.38
2023-12-07T10:39:56.829Z,0.76
2023-12-07T10:42:59.769Z,0.93
2023-12-07T10:46:03.680Z,1.40
2023-12-07T10:49:15.683Z,1.41
2023-12-07T10:52:26.762Z,1.07
2023-12-07T10:55:32.226Z,1.40
2023-12-07T10:58:37.400Z,1.32
2023-12-07T11:01:41.228Z,0.54
2023-12-07T11:04:45.011Z,1.45
2023-12-07T11:07:56.523Z,1.30
2023-12-07T11:11:06.907Z,1.05
2023-12-07T11:14:13.994Z,1.11
2023-12-07T11:17:17.656Z,1.05
2023-12-07T11:20:32.731Z,1.24
2023-12-07T11:23:37.908Z,1.44
2023-12-07T11:26:42.559Z,1.52
2023-12-07T11:29:47.767Z,1.58
2023-12-07T11:32:49.928Z,1.61
2023-12-07T11:36:05.682Z,1.44
2023-12-07T11:39:26.488Z,1.50
2023-12-07T11:42:31.359Z,1.46
2023-12-07T11:45:47.649Z,1.57
2023-12-07T11:48:51.087Z,1.44
2023-12-07T11:51:53.375Z,1.37
2023-12-07T11:54:56.690Z,1.53
2023-12-07T11:58:07.488Z,0.69
2023-12-07T12:01:10.896Z,0.95
2023-12-07T12:04:13.353Z,1.56
2023-12-07T12:07:15.282Z,1.61
2023-12-07T12:10:20.705Z,1.59
2023-12-07T12:13:28.629Z,1.70
2023-12-07T12:16:30.712Z,1.69
2023-12-07T12:19:36.893Z,1.73
2023-12-07T12:22:38.643Z,1.76
2023-12-07T12:25:42.474Z,1.69
2023-12-07T12:28:45.654Z,1.55
2023-12-07T12:31:48.205Z,1.67
2023-12-07T12:34:52.648Z,1.63
2023-12-07T12:37:56.552Z,1.16
2023-12-07T12:41:00.096Z,1.43
2023-12-07T12:44:02.621Z,0.94
2023-12-07T12:47:06.465Z,1.06
2023-12-07T12:50:10.780Z,1.46
2023-12-07T12:53:14.445Z,1.40
2023-12-07T12:56:17.979Z,1.41
2023-12-07T12:59:21.655Z,1.53
2023-12-07T13:02:23.811Z,1.15
2023-12-07T13:05:26.514Z,0.92
2023-12-07T13:08:28.586Z,1.52
2023-12-07T13:11:32.006Z,0.83
2023-12-07T13:14:39.465Z,0.88
2023-12-07T13:17:42.128Z,1.38
2023-12-07T13:20:49.958Z,1.04
2023-12-07T13:24:01.568Z,1.48
2023-12-07T13:27:06.905Z,1.03
2023-12-07T13:30:10.462Z,1.41
2023-12-07T13:33:21.719Z,1.46
2023-12-07T13:36:30.561Z,1.47
2023-12-07T13:39:33.253Z,1.40
2023-12-07T13:42:37.167Z,1.47
2023-12-07T13:45:39.296Z,1.38
2023-12-07T13:48:41.248Z,1.41
2023-12-07T13:51:43.616Z,1.07
2023-12-07T13:54:53.307Z,0.84
2023-12-07T13:57:58.718Z,1.32
2023-12-07T14:01:02.514Z,1.27
2023-12-07T14:04:04.558Z,1.32
2023-12-07T14:07:11.471Z,1.29
2023-12-07T14:10:14.364Z,1.26
2023-12-07T14:13:19.326Z,0.84
2023-12-07T14:16:31.499Z,0.85
2023-12-07T14:19:44.739Z,1.25
2023-12-07T14:22:47.483Z,1.31
2023-12-07T14:25:49.908Z,1.19
2023-12-07T14:28:53.430Z,1.29
2023-12-07T14:31:55.654Z,0.90
2023-12-07T14:34:57.745Z,1.02
2023-12-07T14:38:00.074Z,1.24
2023-12-07T14:41:01.931Z,1.16
2023-12-07T14:44:06.109Z,1.18
2023-12-07T14:47:08.508Z,1.28
2023-12-07T14:50:10.678Z,1.31
2023-12-07T14:53:13.117Z,1.08
2023-12-07T14:56:15.231Z,1.25
2023-12-07T14:59:21.132Z,1.27
2023-12-07T15:02:23.382Z,0.95
2023-12-07T15:05:25.529Z,1.25
2023-12-07T15:08:27.423Z,1.25
2023-12-07T15:11:29.953Z,1.20
2023-12-07T15:14:37.809Z,0.94
2023-12-07T15:17:42.715Z,0.25
2023-12-07T15:20:45.076Z,0.87
2023-12-07T15:23:47.266Z,0.77
2023-12-07T15:26:49.527Z,0.91
2023-12-07T15:29:52.982Z,-0.05
2023-12-07T15:32:55.001Z,0.26
2023-12-07T15:35:58.125Z,0.98
2023-12-07T15:39:00.412Z,0.41
2023-12-07T15:42:03.419Z,0.56
2023-12-07T15:45:09.153Z,1.00
2023-12-07T15:48:11.305Z,0.94
2023-12-07T15:51:13.332Z,0.79
2023-12-07T15:54:26.721Z,0.94
2023-12-07T15:57:36.199Z,0.90
2023-12-07T16:00:40.201Z,0.87
2023-12-07T16:03:42.114Z,0.92
2023-12-07T16:06:44.614Z,0.74
2023-12-07T16:09:46.540Z,-0.12
2023-12-07T16:12:48.557Z,0.72
2023-12-07T16:15:52.086Z,0.05
2023-12-07T16:18:54.018Z,0.87
2023-12-07T16:21:57.100Z,0.85
2023-12-07T16:25:06.175Z,0.52
2023-12-07T16:28:14.516Z,0.73
2023-12-07T16:31:24.189Z,0.55
2023-12-07T16:34:31.258Z,0.64
2023-12-07T16:37:39.576Z,0.69
2023-12-07T16:40:46.989Z,0.72
2023-12-07T16:43:54.963Z,0.79
2023-12-07T16:47:05.140Z,0.51
2023-12-07T16:50:16.077Z,0.80
2023-12-07T16:53:23.305Z,0.72
2023-12-07T16:56:25.277Z,0.45
2023-12-07T16:59:28.226Z,0.75
2023-12-07T17:02:32.275Z,0.64
2023-12-07T17:05:34.299Z,0.73
2023-12-07T17:08:37.307Z,0.79
2023-12-07T17:11:39.268Z,0.82
2023-12-07T17:14:41.345Z,0.80
2023-12-07T17:17:45.087Z,0.48
2023-12-07T17:20:47.120Z,0.11
2023-12-07T17:23:49.142Z,0.60
2023-12-07T17:26:54.824Z,0.74
2023-12-07T17:29:56.936Z,0.75
2023-12-07T17:33:00.594Z,0.63
2023-12-07T17:36:02.670Z,0.67
2023-12-07T17:39:04.664Z,0.44
2023-12-07T17:42:06.735Z,0.79
2023-12-07T17:45:10.493Z,0.82
2023-12-07T17:48:13.944Z,0.54
2023-12-07T17:51:15.936Z,0.72
2023-12-07T17:54:19.597Z,0.86
2023-12-07T17:57:21.716Z,0.57
2023-12-07T18:00:23.612Z,0.80
2023-12-07T18:03:27.924Z,0.89
2023-12-07T18:06:29.893Z,0.67
2023-12-07T18:09:32.519Z,0.98
2023-12-07T18:12:34.377Z,1.06
2023-12-07T18:15:36.591Z,1.11
2023-12-07T18:18:40.034Z,1.03
2023-12-07T18:21:42.117Z,1.05
2023-12-07T18:24:44.640Z,0.57
2023-12-07T18:27:48.370Z,0.99
2023-12-07T18:30:50.562Z,0.49
2023-12-07T18:33:54.098Z,0.55
2023-12-07T18:36:56.106Z,1.00
2023-12-07T18:39:59.498Z,1.08
2023-12-07T18:43:02.648Z,1.06
2023-12-07T18:46:07.156Z,1.02
2023-12-07T18:49:10.559Z,0.96
2023-12-07T18:52:13.474Z,0.74
2023-12-07T18:55:15.430Z,0.86
2023-12-07T18:58:17.518Z,0.65
2023-12-07T19:01:19.785Z,0.96
2023-12-07T19:04:23.221Z,0.24
2023-12-07T19:07:25.511Z,0.25
2023-12-07T19:10:29.371Z,0.95
2023-12-07T19:13:31.311Z,1.00
2023-12-07T19:16:33.397Z,0.99
2023-12-07T19:19:36.843Z,1.01
2023-12-07T19:22:38.780Z,1.02
2023-12-07T19:25:40.685Z,1.09
2023-12-07T19:28:42.777Z,1.07
2023-12-07T19:31:45.743Z,1.00
2023-12-07T19:34:49.950Z,0.85
2023-12-07T19:37:51.991Z,0.58
2023-12-07T19:40:54.324Z,0.43
2023-12-07T19:43:56.273Z,0.55
2023-12-07T19:46:58.364Z,1.12
2023-12-07T19:50:01.836Z,0.65
2023-12-07T19:53:04.374Z,1.02
2023-12-07T19:56:09.219Z,0.95
2023-12-07T19:59:11.300Z,0.87
2023-12-07T20:02:13.557Z,0.95
2023-12-07T20:05:17.105Z,0.40
2023-12-07T20:08:19.361Z,0.50
2023-12-07T20:11:21.873Z,1.02
2023-12-07T20:14:24.365Z,1.04
2023-12-07T20:17:27.225Z,1.01
2023-12-07T20:20:31.361Z,0.86
2023-12-07T20:23:33.264Z,0.98
2023-12-07T20:26:35.373Z,0.88
2023-12-07T20:29:38.322Z,0.85
2023-12-07T20:32:40.476Z,0.36
2023-12-07T20:35:45.731Z,0.66
2023-12-07T20:38:47.755Z,0.17
2023-12-07T20:41:49.904Z,0.93
2023-12-07T20:44:52.470Z,0.93
2023-12-07T20:47:54.498Z,0.86
2023-12-07T20:50:59.117Z,0.79
2023-12-07T20:54:01.152Z,0.85
2023-12-07T20:57:04.496Z,0.87
2023-12-07T21:00:08.268Z,0.86
2023-12-07T21:03:10.323Z,1.29
2023-12-07T21:06:25.864Z,1.92
2023-12-07T21:09:29.163Z,2.15
2023-12-07T21:12:31.016Z,2.16
2023-12-07T21:15:35.229Z,2.14
2023-12-07T21:18:37.275Z,1.71
2023-12-07T21:21:41.697Z,2.06
2023-12-07T21:24:43.594Z,2.04
2023-12-07T21:27:45.438Z,1.96
2023-12-07T21:30:48.061Z,2.09
2023-12-07T21:33:56.537Z,2.14
2023-12-07T21:37:00.504Z,2.21
2023-12-07T21:40:02.442Z,2.29
2023-12-07T21:43:04.377Z,2.35
2023-12-07T21:46:06.472Z,2.22
2023-12-07T21:49:08.497Z,2.38
2023-12-07T21:52:12.625Z,2.34
2023-12-07T21:55:14.715Z,2.32
2023-12-07T21:58:17.452Z,2.34
2023-12-07T22:01:19.948Z,2.16
2023-12-07T22:04:21.867Z,2.24
2023-12-07T22:07:25.644Z,2.18
2023-12-07T22:10:29.803Z,2.25
2023-12-07T22:13:32.168Z,1.49
2023-12-07T22:16:34.849Z,1.43
2023-12-07T22:19:36.835Z,2.36
2023-12-07T22:22:41.869Z,2.45
2023-12-07T22:25:43.778Z,2.48
2023-12-07T22:28:45.674Z,2.49
2023-12-07T22:31:47.903Z,2.49
2023-12-07T22:34:50.116Z,2.32
2023-12-07T22:37:54.084Z,2.51
2023-12-07T22:40:56.828Z,2.49
2023-12-07T22:43:58.731Z,2.43
2023-12-07T22:47:01.929Z,2.40
2023-12-07T22:50:04.928Z,2.30
2023-12-07T22:53:08.166Z,2.26
2023-12-07T22:56:11.077Z,2.28
2023-12-07T22:59:12.957Z,2.30
2023-12-07T23:02:18.072Z,2.28
2023-12-07T23:05:20.045Z,2.38
2023-12-07T23:08:24.027Z,2.29
2023-12-07T23:11:25.982Z,1.84
2023-12-07T23:14:27.920Z,2.04
2023-12-07T23:17:29.907Z,2.22
2023-12-07T23:20:32.864Z,2.16
2023-12-07T23:23:36.272Z,2.09
2023-12-07T23:26:38.684Z,2.38
2023-12-07T23:29:46.633Z,2.41
2023-12-07T23:32:54.815Z,2.27
2023-12-07T23:35:57.947Z,1.89
2023-12-07T23:39:01.293Z,1.51
2023-12-07T23:42:03.343Z,1.62
2023-12-07T23:45:06.703Z,1.72
2023-12-07T23:48:09.910Z,1.79
2023-12-07T23:51:11.915Z,2.62
2023-12-07T23:54:15.418Z,2.20
2023-12-07T23:57:17.620Z,2.93
